createdAt,value
2022-10-21T00:02:20.917Z,99369.28
2022-10-21T00:05:06.459Z,99379.56
2022-10-21T00:07:52.848Z,99371.09
2022-10-21T00:10:38.432Z,99376.44
2022-10-21T00:13:24.173Z,99362.84
2022-10-21T00:16:28.385Z,99361.41
2022-10-21T00:19:13.841Z,99354.00
2022-10-21T00:21:59.299Z,99356.03
2022-10-21T00:24:44.724Z,99353.75
2022-10-21T00:27:30.249Z,99347.53
2022-10-21T00:30:15.940Z,99339.91
2022-10-21T00:33:03.175Z,99342.19
2022-10-21T00:35:52.126Z,99328.38
2022-10-21T00:38:37.403Z,99342.34
2022-10-21T00:41:23.159Z,99322.56
2022-10-21T00:44:27.676Z,99319.03
2022-10-21T00:47:18.826Z,99325.81
2022-10-21T00:50:15.865Z,99319.81
2022-10-21T00:53:01.235Z,99314.22
2022-10-21T00:55:52.602Z,99319.19
2022-10-21T00:58:41.076Z,99332.97
2022-10-21T01:01:27.302Z,99324.34
2022-10-21T01:04:13.401Z,99333.19
2022-10-21T01:06:59.749Z,99340.81
2022-10-21T01:09:46.404Z,99344.78
2022-10-21T01:12:59.305Z,99345.44
2022-10-21T01:15:54.624Z,99350.00
2022-10-21T01:19:07.584Z,99335.78
2022-10-21T01:22:14.543Z,99340.50
2022-10-21T01:25:37.208Z,99336.47
2022-10-21T01:28:34.188Z,99334.53
2022-10-21T01:31:39.522Z,99342.38
2022-10-21T01:35:00.497Z,99326.72
2022-10-21T01:38:09.596Z,99331.44
2022-10-21T01:41:08.142Z,99334.72
2022-10-21T01:43:58.092Z,99321.53
2022-10-21T01:47:15.787Z,99335.88
2022-10-21T01:50:07.551Z,99338.81
2022-10-21T01:52:53.321Z,99341.88
2022-10-21T01:55:42.127Z,99325.03
2022-10-21T01:58:45.520Z,99335.53
2022-10-21T02:01:33.349Z,99330.00
2022-10-21T02:04:21.536Z,99336.34
2022-10-21T02:07:06.829Z,99335.97
2022-10-21T02:10:10.852Z,99334.50
2022-10-21T02:13:00.291Z,99347.50
2022-10-21T02:16:05.968Z,99327.75
2022-10-21T02:18:51.690Z,99335.16
2022-10-21T02:21:40.976Z,99337.66
2022-10-21T02:24:38.080Z,99345.44
2022-10-21T02:27:27.598Z,99346.25
2022-10-21T02:30:15.779Z,99353.03
2022-10-21T02:33:13.367Z,99355.72
2022-10-21T02:36:20.882Z,99354.06
2022-10-21T02:39:10.882Z,99372.22
2022-10-21T02:42:00.948Z,99368.75
2022-10-21T02:44:48.372Z,99349.34
2022-10-21T02:47:34.995Z,99368.09
2022-10-21T02:50:22.542Z,99353.50
2022-10-21T02:53:07.903Z,99356.13
2022-10-21T02:55:53.334Z,99345.03
2022-10-21T02:58:39.628Z,99343.84
2022-10-21T03:01:25.165Z,99338.88
2022-10-21T03:04:10.537Z,99365.44
2022-10-21T03:06:56.132Z,99340.72
2022-10-21T03:09:41.836Z,99340.50
2022-10-21T03:12:27.214Z,99338.47
2022-10-21T03:15:12.560Z,99340.34
2022-10-21T03:17:57.784Z,99339.91
2022-10-21T03:20:43.365Z,99317.91
2022-10-21T03:23:28.812Z,99336.19
2022-10-21T03:26:14.439Z,99344.66
2022-10-21T03:29:00.068Z,99336.00
2022-10-21T03:31:45.652Z,99346.50
2022-10-21T03:34:33.001Z,99335.81
2022-10-21T03:37:18.641Z,99354.94
2022-10-21T03:40:05.422Z,99331.91
2022-10-21T03:42:53.003Z,99340.75
2022-10-21T03:45:38.591Z,99356.78
2022-10-21T03:48:24.186Z,99353.72
2022-10-21T03:51:09.659Z,99360.31
2022-10-21T03:53:54.913Z,99356.66
2022-10-21T03:56:40.310Z,99352.72
2022-10-21T03:59:28.072Z,99348.41
2022-10-21T04:02:13.512Z,99362.59
2022-10-21T04:04:59.165Z,99330.53
2022-10-21T04:07:49.376Z,99338.72
2022-10-21T04:10:38.870Z,99365.84
2022-10-21T04:13:24.111Z,99343.88
2022-10-21T04:16:09.782Z,99356.00
2022-10-21T04:18:55.283Z,99372.66
2022-10-21T04:21:40.719Z,99358.44
2022-10-21T04:24:27.219Z,99359.88
2022-10-21T04:27:12.481Z,99362.56
2022-10-21T04:29:58.159Z,99358.88
2022-10-21T04:32:44.995Z,99381.53
2022-10-21T04:35:30.499Z,99380.50
2022-10-21T04:38:15.894Z,99364.84
2022-10-21T04:41:01.586Z,99372.25
2022-10-21T04:43:47.399Z,99374.94
2022-10-21T04:46:33.387Z,99396.53
2022-10-21T04:49:18.863Z,99359.88
2022-10-21T04:52:04.226Z,99385.38
2022-10-21T04:54:49.816Z,99368.28
2022-10-21T04:57:35.205Z,99366.84
2022-10-21T05:00:21.166Z,99370.09
2022-10-21T05:03:06.788Z,99392.75
2022-10-21T05:05:52.324Z,99370.91
2022-10-21T05:08:39.047Z,99366.34
2022-10-21T05:11:24.489Z,99365.09
2022-10-21T05:14:10.136Z,99362.00
2022-10-21T05:16:55.731Z,99370.00
2022-10-21T05:19:41.195Z,99378.22
2022-10-21T05:22:26.715Z,99386.41
2022-10-21T05:25:12.164Z,99370.28
2022-10-21T05:27:57.765Z,99342.88
2022-10-21T05:30:46.601Z,99385.66
2022-10-21T05:33:33.544Z,99368.97
2022-10-21T05:36:24.082Z,99381.06
2022-10-21T05:39:10.392Z,99381.28
2022-10-21T05:41:56.888Z,99383.06
2022-10-21T05:44:42.481Z,99394.81
2022-10-21T05:47:29.521Z,99396.84
2022-10-21T05:50:17.868Z,99415.56
2022-10-21T05:53:03.708Z,99399.25
2022-10-21T05:55:50.061Z,99396.19
2022-10-21T05:58:35.500Z,99387.91
2022-10-21T06:01:21.372Z,99413.84
2022-10-21T06:04:07.308Z,99397.38
2022-10-21T06:06:53.011Z,99405.44
2022-10-21T06:09:38.630Z,99408.88
2022-10-21T06:12:26.263Z,99405.00
2022-10-21T06:15:11.792Z,99400.97
2022-10-21T06:17:57.499Z,99397.38
2022-10-21T06:20:45.105Z,99403.56
2022-10-21T06:23:30.677Z,99399.47
2022-10-21T06:26:24.193Z,99404.31
2022-10-21T06:29:09.830Z,99408.81
2022-10-21T06:31:58.537Z,99395.00
2022-10-21T06:34:44.014Z,99419.72
2022-10-21T06:37:32.481Z,99428.81
2022-10-21T06:40:18.254Z,99405.16
2022-10-21T06:43:05.194Z,99422.94
2022-10-21T06:45:54.739Z,99427.06
2022-10-21T06:48:41.852Z,99419.28
2022-10-21T06:51:36.907Z,99421.16
2022-10-21T06:54:23.921Z,99419.97
2022-10-21T06:57:20.143Z,99418.84
2022-10-21T07:00:07.567Z,99404.16
2022-10-21T07:02:53.099Z,99420.09
2022-10-21T07:05:38.651Z,99394.75
2022-10-21T07:08:39.760Z,99412.13
2022-10-21T07:11:31.729Z,99426.91
2022-10-21T07:14:19.332Z,99421.25
2022-10-21T07:17:04.984Z,99414.81
2022-10-21T07:19:51.494Z,99393.88
2022-10-21T07:22:37.146Z,99397.66
2022-10-21T07:25:23.763Z,99387.25
2022-10-21T07:28:11.780Z,99408.63
2022-10-21T07:31:02.330Z,99385.59
2022-10-21T07:33:48.019Z,99375.22
2022-10-21T07:36:38.627Z,99398.53
2022-10-21T07:39:28.356Z,99404.06
2022-10-21T07:42:16.736Z,99395.06
2022-10-21T07:45:02.257Z,99409.00
2022-10-21T07:47:48.824Z,99395.66
2022-10-21T07:50:35.224Z,99394.78
2022-10-21T07:53:20.914Z,99417.00
2022-10-21T07:56:06.530Z,99413.41
2022-10-21T07:58:52.789Z,99414.81
2022-10-21T08:01:39.178Z,99418.56
2022-10-21T08:04:25.154Z,99411.41
2022-10-21T08:07:13.200Z,99408.34
2022-10-21T08:09:59.684Z,99427.09
2022-10-21T08:13:03.746Z,99427.22
2022-10-21T08:15:49.350Z,99414.09
2022-10-21T08:18:36.510Z,99413.97
2022-10-21T08:21:22.934Z,99415.59
2022-10-21T08:24:08.611Z,99413.97
2022-10-21T08:26:55.288Z,99403.66
2022-10-21T08:29:40.868Z,99409.72
2022-10-21T08:32:27.299Z,99411.97
2022-10-21T08:35:12.869Z,99410.22
2022-10-21T08:38:01.457Z,99425.66
2022-10-21T08:40:55.750Z,99409.44
2022-10-21T08:43:49.384Z,99403.94
2022-10-21T08:46:40.982Z,99389.09
2022-10-21T08:49:36.466Z,99396.97
2022-10-21T08:52:31.438Z,99389.81
2022-10-21T08:55:25.321Z,99391.69
2022-10-21T08:58:13.932Z,99397.44
2022-10-21T09:01:05.834Z,99390.63
2022-10-21T09:04:16.250Z,99398.22
2022-10-21T09:07:52.788Z,99386.41
2022-10-21T09:10:47.069Z,99402.81
2022-10-21T09:13:53.754Z,99402.56
2022-10-21T09:17:05.555Z,99401.84
2022-10-21T09:20:09.051Z,99408.06
2022-10-21T09:23:11.283Z,99412.41
2022-10-21T09:26:26.528Z,99409.94
2022-10-21T09:29:15.452Z,99405.25
2022-10-21T09:32:02.920Z,99419.06
2022-10-21T09:34:59.303Z,99402.22
2022-10-21T09:38:00.111Z,99415.91
2022-10-21T09:40:48.801Z,99410.88
2022-10-21T09:43:42.744Z,99404.53
2022-10-21T09:46:32.284Z,99411.38
2022-10-21T09:49:54.685Z,99410.66
2022-10-21T09:52:25.080Z,99404.34
2022-10-21T09:55:11.528Z,99404.09
2022-10-21T09:58:07.050Z,99419.91
2022-10-21T10:01:04.094Z,99413.44
2022-10-21T10:03:50.422Z,99405.38
2022-10-21T10:06:54.714Z,99402.47
2022-10-21T10:09:43.367Z,99412.66
2022-10-21T10:12:40.045Z,99417.09
2022-10-21T10:15:52.585Z,99405.16
2022-10-21T10:18:42.301Z,99406.91
2022-10-21T10:21:36.153Z,99403.25
2022-10-21T10:24:23.344Z,99401.06
2022-10-21T10:27:08.848Z,99404.09
2022-10-21T10:29:54.408Z,99403.03
2022-10-21T10:32:43.224Z,99401.75
2022-10-21T10:35:42.368Z,99406.44
2022-10-21T10:38:40.173Z,99387.47
2022-10-21T10:41:34.150Z,99391.59
2022-10-21T10:44:26.368Z,99380.94
2022-10-21T10:47:16.000Z,99380.56
2022-10-21T10:50:01.392Z,99384.06
2022-10-21T10:52:48.494Z,99377.59
2022-10-21T10:55:36.597Z,99362.13
2022-10-21T10:58:25.539Z,99371.94
2022-10-21T11:01:17.315Z,99385.16
2022-10-21T11:04:09.867Z,99375.22
2022-10-21T11:07:09.110Z,99376.66
2022-10-21T11:09:54.737Z,99381.94
2022-10-21T11:12:47.860Z,99385.72
2022-10-21T11:15:35.246Z,99399.88
2022-10-21T11:18:34.194Z,99396.25
2022-10-21T11:21:50.164Z,99379.50
2022-10-21T11:24:40.341Z,99377.28
2022-10-21T11:27:41.363Z,99358.81
2022-10-21T11:30:38.268Z,99371.75
2022-10-21T11:33:44.796Z,99379.72
2022-10-21T11:36:49.008Z,99365.31
2022-10-21T11:40:12.820Z,99354.06
2022-10-21T11:43:09.431Z,99355.31
2022-10-21T11:45:58.630Z,99346.63
2022-10-21T11:48:53.390Z,99344.38
2022-10-21T11:51:48.221Z,99338.50
2022-10-21T11:54:36.682Z,99353.97
2022-10-21T11:57:47.017Z,99348.31
2022-10-21T12:00:42.226Z,99330.53
2022-10-21T12:04:07.425Z,99345.53
2022-10-21T12:07:02.427Z,99349.06
2022-10-21T12:09:51.567Z,99342.16
2022-10-21T12:13:01.228Z,99322.81
2022-10-21T12:16:00.922Z,99343.78
2022-10-21T12:19:29.359Z,99332.03
2022-10-21T12:22:15.563Z,99319.66
2022-10-21T12:25:11.726Z,99326.78
2022-10-21T12:28:03.930Z,99340.38
2022-10-21T12:31:07.885Z,99331.81
2022-10-21T12:34:04.270Z,99317.88
2022-10-21T12:37:06.582Z,99344.34
2022-10-21T12:39:54.537Z,99329.56
2022-10-21T12:42:47.805Z,99311.88
2022-10-21T12:45:55.638Z,99322.06
2022-10-21T12:48:56.851Z,99317.50
2022-10-21T12:51:45.907Z,99326.41
2022-10-21T12:54:38.916Z,99309.81
2022-10-21T12:57:28.636Z,99322.56
2022-10-21T13:00:44.833Z,99324.19
2022-10-21T13:04:00.608Z,99330.88
2022-10-21T13:07:37.674Z,99321.25
2022-10-21T13:10:23.024Z,99322.06
2022-10-21T13:13:08.364Z,99317.75
2022-10-21T13:16:05.388Z,99331.34
2022-10-21T13:19:09.241Z,99317.50
2022-10-21T13:22:01.969Z,99322.31
2022-10-21T13:24:52.436Z,99309.91
2022-10-21T13:27:49.988Z,99316.13
2022-10-21T13:30:51.472Z,99333.47
2022-10-21T13:33:39.003Z,99297.09
2022-10-21T13:36:33.535Z,99326.25
2022-10-21T13:39:24.653Z,99320.97
2022-10-21T13:42:39.626Z,99334.06
2022-10-21T13:45:44.706Z,99336.66
2022-10-21T13:48:42.207Z,99325.69
2022-10-21T13:51:38.358Z,99332.00
2022-10-21T13:54:34.555Z,99341.69
2022-10-21T13:57:37.126Z,99350.00
2022-10-21T14:00:36.016Z,99355.16
2022-10-21T14:03:24.414Z,99336.69
2022-10-21T14:06:14.362Z,99351.78
2022-10-21T14:09:02.179Z,99359.72
2022-10-21T14:12:04.239Z,99362.91
2022-10-21T14:14:52.495Z,99360.19
2022-10-21T14:17:42.284Z,99367.69
2022-10-21T14:20:36.324Z,99372.50
2022-10-21T14:23:24.662Z,99384.56
2022-10-21T14:26:16.528Z,99357.84
2022-10-21T14:29:03.484Z,99377.84
2022-10-21T14:31:49.346Z,99374.94
2022-10-21T14:34:43.672Z,99375.50
2022-10-21T14:37:29.119Z,99378.44
2022-10-21T14:40:44.528Z,99390.03
2022-10-21T14:43:39.280Z,99362.75
2022-10-21T14:46:27.060Z,99358.31
2022-10-21T14:52:06.680Z,99374.03
2022-10-21T14:54:55.305Z,99372.63
2022-10-21T14:58:02.616Z,99368.06
2022-10-21T15:00:52.829Z,99371.91
2022-10-21T15:04:12.614Z,99388.41
2022-10-21T15:06:58.167Z,99389.22
2022-10-21T15:09:43.731Z,99365.56
2022-10-21T15:12:37.842Z,99374.38
2022-10-21T15:15:44.500Z,99378.59
2022-10-21T15:18:41.772Z,99376.13
2022-10-21T15:21:31.207Z,99377.03
2022-10-21T15:24:17.635Z,99377.84
2022-10-21T15:27:05.704Z,99403.47
2022-10-21T15:29:55.563Z,99385.69
2022-10-21T15:32:41.316Z,99385.34
2022-10-21T15:35:41.026Z,99394.97
2022-10-21T15:38:26.413Z,99389.66
2022-10-21T15:41:12.486Z,99397.03
2022-10-21T15:43:57.952Z,99414.47
2022-10-21T15:46:44.396Z,99397.97
2022-10-21T15:49:35.999Z,99404.66
2022-10-21T15:52:24.225Z,99391.31
2022-10-21T15:55:09.601Z,99391.88
2022-10-21T15:57:56.744Z,99399.22
2022-10-21T16:00:42.483Z,99390.66
2022-10-21T16:03:27.891Z,99380.22
2022-10-21T16:06:14.196Z,99405.03
2022-10-21T16:08:59.683Z,99380.78
2022-10-21T16:11:54.770Z,99378.44
2022-10-21T16:14:44.536Z,99391.97
2022-10-21T16:17:31.006Z,99404.59
2022-10-21T16:20:16.602Z,99396.16
2022-10-21T16:23:04.636Z,99393.56
2022-10-21T16:25:50.703Z,99395.66
2022-10-21T16:28:37.313Z,99405.25
2022-10-21T16:31:31.212Z,99396.22
2022-10-21T16:34:16.615Z,99403.69
2022-10-21T16:37:02.681Z,99398.81
2022-10-21T16:39:50.240Z,99390.63
2022-10-21T16:42:35.727Z,99398.22
2022-10-21T16:45:21.123Z,99390.03
2022-10-21T16:48:16.607Z,99406.06
2022-10-21T16:51:05.109Z,99404.56
2022-10-21T16:53:50.667Z,99428.88
2022-10-21T16:56:36.533Z,99401.31
2022-10-21T16:59:22.201Z,99402.94
2022-10-21T17:02:07.537Z,99407.84
2022-10-21T17:04:55.217Z,99394.00
2022-10-21T17:07:41.021Z,99405.94
2022-10-21T17:10:27.719Z,99404.06
2022-10-21T17:13:14.184Z,99390.03
2022-10-21T17:15:59.610Z,99405.56
2022-10-21T17:18:44.996Z,99399.13
2022-10-21T17:21:51.201Z,99425.13
2022-10-21T17:24:37.182Z,99412.13
2022-10-21T17:27:26.608Z,99389.19
2022-10-21T17:30:11.989Z,99371.28
2022-10-21T17:32:57.429Z,99354.19
2022-10-21T17:35:43.500Z,99368.75
2022-10-21T17:38:28.841Z,99375.97
2022-10-21T17:41:14.222Z,99375.81
2022-10-21T17:44:00.122Z,99391.19
2022-10-21T17:46:45.644Z,99382.53
2022-10-21T17:49:31.257Z,99384.63
2022-10-21T17:52:16.716Z,99370.22
2022-10-21T17:55:44.283Z,99372.38
2022-10-21T18:04:04.303Z,99387.16
2022-10-21T18:06:49.697Z,99384.13
2022-10-21T18:09:35.051Z,99388.91
2022-10-21T18:12:20.425Z,99389.13
2022-10-21T18:15:05.875Z,99381.06
2022-10-21T18:17:51.791Z,99397.34
2022-10-21T18:20:37.240Z,99387.47
2022-10-21T18:23:22.830Z,99384.44
2022-10-21T18:26:08.252Z,99397.44
2022-10-21T18:28:53.804Z,99410.41
2022-10-21T18:31:41.465Z,99410.56
2022-10-21T18:34:48.123Z,99401.91
2022-10-21T18:37:33.625Z,99413.00
2022-10-21T18:40:23.254Z,99378.84
2022-10-21T18:43:08.645Z,99398.63
2022-10-21T18:45:54.381Z,99403.31
2022-10-21T18:48:40.736Z,99412.19
2022-10-21T18:51:30.554Z,99387.13
2022-10-21T18:54:16.498Z,99421.25
2022-10-21T18:57:28.156Z,99408.91
2022-10-21T19:00:13.535Z,99411.75
2022-10-21T19:02:59.084Z,99413.25
2022-10-21T19:05:45.627Z,99426.41
2022-10-21T19:08:32.188Z,99419.16
2022-10-21T19:11:17.942Z,99415.28
2022-10-21T19:14:11.214Z,99414.22
2022-10-21T19:17:03.074Z,99413.75
2022-10-21T19:19:49.341Z,99421.16
2022-10-21T19:22:36.295Z,99421.63
2022-10-21T19:26:23.053Z,99415.31
2022-10-21T19:29:08.323Z,99399.78
2022-10-21T19:31:56.660Z,99435.38
2022-10-21T19:34:45.685Z,99428.31
2022-10-21T19:37:31.349Z,99415.06
2022-10-21T19:40:16.846Z,99435.25
2022-10-21T19:43:02.435Z,99427.06
2022-10-21T19:45:48.907Z,99431.75
2022-10-21T19:48:34.561Z,99436.78
2022-10-21T19:51:19.944Z,99438.25
2022-10-21T19:54:07.197Z,99435.13
2022-10-21T19:56:53.427Z,99447.97
2022-10-21T19:59:39.260Z,99448.88
2022-10-21T20:02:24.695Z,99429.56
2022-10-21T20:05:10.088Z,99439.88
2022-10-21T20:07:56.909Z,99448.06
2022-10-21T20:10:42.521Z,99450.88
2022-10-21T20:13:27.965Z,99434.25
2022-10-21T20:16:15.500Z,99439.91
2022-10-21T20:19:05.036Z,99450.47
2022-10-21T20:21:52.572Z,99458.66
2022-10-21T20:24:39.741Z,99451.63
2022-10-21T20:27:26.943Z,99460.16
2022-10-21T20:30:12.538Z,99450.53
2022-10-21T20:32:58.325Z,99461.66
2022-10-21T20:35:43.663Z,99450.31
2022-10-21T20:38:31.440Z,99451.72
2022-10-21T20:41:19.241Z,99461.59
2022-10-21T20:44:32.136Z,99462.53
2022-10-21T20:47:17.609Z,99449.19
2022-10-21T20:50:03.248Z,99455.69
2022-10-21T20:52:48.747Z,99439.28
2022-10-21T20:55:34.903Z,99446.53
2022-10-21T20:58:20.534Z,99468.66
2022-10-21T21:01:05.933Z,99452.38
2022-10-21T21:03:51.486Z,99443.66
2022-10-21T21:06:37.920Z,99451.06
2022-10-21T21:12:30.967Z,99462.41
2022-10-21T21:15:16.517Z,99446.09
2022-10-21T21:18:01.913Z,99456.81
2022-10-21T21:20:50.201Z,99457.16
2022-10-21T21:23:36.055Z,99455.06
2022-10-21T21:26:27.125Z,99486.78
2022-10-21T21:29:13.148Z,99491.25
2022-10-21T21:31:59.865Z,99456.28
2022-10-21T21:34:45.309Z,99468.72
2022-10-21T21:37:31.652Z,99472.28
2022-10-21T21:40:17.328Z,99466.44
2022-10-21T21:43:02.740Z,99448.06
2022-10-21T21:45:48.154Z,99450.50
2022-10-21T21:48:36.426Z,99468.66
2022-10-21T21:51:25.275Z,99465.38
2022-10-21T21:54:11.412Z,99468.28
2022-10-21T21:57:26.421Z,99455.28
2022-10-21T22:00:03.979Z,99474.28
2022-10-21T22:02:51.931Z,99461.63
2022-10-21T22:05:37.270Z,99464.78
2022-10-21T22:08:22.846Z,99451.94
2022-10-21T22:11:08.167Z,99478.38
2022-10-21T22:13:55.072Z,99474.16
2022-10-21T22:16:47.127Z,99465.28
2022-10-21T22:19:33.672Z,99468.31
2022-10-21T22:22:47.485Z,99467.03
2022-10-21T22:25:35.600Z,99458.47
2022-10-21T22:28:21.256Z,99464.09
2022-10-21T22:31:18.742Z,99477.31
2022-10-21T22:34:06.607Z,99470.06
2022-10-21T22:36:55.406Z,99471.13
2022-10-21T22:40:05.438Z,99482.47
2022-10-21T22:42:50.986Z,99489.38
2022-10-21T22:45:36.561Z,99475.97
2022-10-21T22:48:23.276Z,99480.47
2022-10-21T22:51:08.758Z,99478.53
2022-10-21T22:53:56.378Z,99507.78
2022-10-21T22:56:45.965Z,99505.91
2022-10-21T22:59:31.509Z,99511.28
2022-10-21T23:02:16.970Z,99483.78
2022-10-21T23:05:02.632Z,99467.94
2022-10-21T23:07:48.309Z,99481.22
2022-10-21T23:10:34.168Z,99465.31
2022-10-21T23:13:20.421Z,99480.34
2022-10-21T23:16:06.408Z,99478.84
2022-10-21T23:18:52.037Z,99474.28
2022-10-21T23:21:37.975Z,99479.66
2022-10-21T23:24:24.720Z,99472.63
2022-10-21T23:27:10.094Z,99472.03
2022-10-21T23:29:57.417Z,99473.56
2022-10-21T23:32:43.554Z,99460.47
2022-10-21T23:35:29.428Z,99467.25
2022-10-21T23:38:18.201Z,99465.72
2022-10-21T23:41:04.261Z,99474.03
2022-10-21T23:43:49.655Z,99458.13
2022-10-21T23:46:36.659Z,99467.38
2022-10-21T23:49:22.348Z,99467.50
2022-10-21T23:52:07.873Z,99457.44
2022-10-21T23:54:54.311Z,99463.75
2022-10-21T23:57:40.107Z,99451.81
